Time;durP1;ratioP1;P1;durP2;ratioP2;P2;SDS_P1;SDS_P2;PMS_P1;PMS_P2;Temp;Humidity;BMP_temperature;BMP_pressure;BME280_temperature;BME280_humidity;BME280_pressure;Samples;Min_cycle;Max_cycle;Signal;HPM_P1;HPM_P2
2023/02/05 00:00:55;;;;;;;27.05;14.82;;;;;;;9.09;100.00;103780.34;5047876;28;20032;-72
2023/02/05 00:03:20;;;;;;;24.67;14.90;;;;;;;9.06;100.00;103758.38;5047209;28;20538;-69
2023/02/05 00:05:45;;;;;;;27.23;14.98;;;;;;;9.13;100.00;103755.00;5045855;28;20481;-69
2023/02/05 00:08:11;;;;;;;27.73;14.20;;;;;;;9.07;100.00;103745.25;5046478;28;20040;-71
2023/02/05 00:10:36;;;;;;;26.67;14.55;;;;;;;9.02;100.00;103736.38;5047853;28;20025;-69
2023/02/05 00:13:02;;;;;;;29.27;15.05;;;;;;;9.02;100.00;103746.91;5046863;28;20043;-66
2023/02/05 00:15:27;;;;;;;29.58;15.05;;;;;;;9.01;100.00;103739.88;5029897;28;20032;-71
2023/02/05 00:17:53;;;;;;;30.55;15.23;;;;;;;8.97;100.00;103727.50;5048277;28;20023;-69
2023/02/05 00:20:18;;;;;;;27.85;15.13;;;;;;;8.92;100.00;103744.94;5047058;28;20116;-65
2023/02/05 00:22:43;;;;;;;31.95;14.25;;;;;;;8.97;100.00;103748.53;5047511;28;20062;-69
2023/02/05 00:25:09;;;;;;;26.38;14.73;;;;;;;9.01;100.00;103744.25;5046433;28;20049;-70
2023/02/05 00:27:34;;;;;;;25.65;13.50;;;;;;;8.97;100.00;103759.97;5046553;28;20556;-68
2023/02/05 00:30:00;;;;;;;25.52;13.00;;;;;;;8.99;100.00;103757.34;5047710;28;20449;-68
2023/02/05 00:32:25;;;;;;;18.63;12.93;;;;;;;9.01;100.00;103744.25;5046459;28;20071;-68
2023/02/05 00:34:50;;;;;;;22.60;12.52;;;;;;;8.97;100.00;103751.16;5047015;28;20029;-68
2023/02/05 00:37:16;;;;;;;23.60;12.75;;;;;;;9.04;100.00;103754.81;5046606;28;20167;-69
2023/02/05 00:39:41;;;;;;;23.15;11.88;;;;;;;9.03;100.00;103748.66;5047462;28;20061;-66
2023/02/05 00:42:07;;;;;;;20.90;11.57;;;;;;;9.01;100.00;103755.66;5047589;28;20780;-70
2023/02/05 00:44:32;;;;;;;21.77;11.27;;;;;;;8.93;100.00;103766.00;5046421;28;20115;-68
2023/02/05 00:46:57;;;;;;;17.23;10.43;;;;;;;9.01;100.00;103773.16;5047365;28;20029;-70
2023/02/05 00:49:23;;;;;;;16.00;9.52;;;;;;;8.95;100.00;103766.06;5045950;28;20100;-63
2023/02/05 00:51:48;;;;;;;18.10;10.55;;;;;;;8.97;100.00;103759.06;5047301;28;20040;-67
2023/02/05 00:54:13;;;;;;;18.77;10.50;;;;;;;8.98;100.00;103769.59;5047250;28;20578;-70
2023/02/05 00:56:39;;;;;;;18.88;10.23;;;;;;;8.95;100.00;103771.31;5041041;28;20032;-69
2023/02/05 00:59:04;;;;;;;17.17;10.23;;;;;;;8.94;100.00;103775.66;5046751;28;20024;-70
2023/02/05 01:01:29;;;;;;;20.75;10.23;;;;;;;8.95;100.00;103764.31;5028080;28;20542;-63
2023/02/05 01:03:55;;;;;;;15.55;10.02;;;;;;;8.96;100.00;103759.91;5046005;28;20025;-65
2023/02/05 01:06:20;;;;;;;18.48;9.20;;;;;;;8.94;100.00;103764.28;5047387;28;20052;-70
2023/02/05 01:08:46;;;;;;;17.58;9.02;;;;;;;8.99;100.00;103767.88;5045835;28;20046;-67
2023/02/05 01:11:11;;;;;;;14.45;8.35;;;;;;;8.94;100.00;103769.53;5048574;28;20029;-71
2023/02/05 01:13:38;;;;;;;14.85;8.57;;;;;;;8.96;100.00;103759.91;5050965;28;20094;-66
2023/02/05 01:16:05;;;;;;;16.02;8.18;;;;;;;8.96;100.00;103760.81;5032821;28;20535;-67
2023/02/05 01:18:30;;;;;;;12.80;7.18;;;;;;;8.98;100.00;103760.84;5050516;28;20055;-65
2023/02/05 01:20:56;;;;;;;16.67;7.22;;;;;;;8.95;100.00;103758.16;5051170;28;20448;-69
2023/02/05 01:23:21;;;;;;;14.52;6.85;;;;;;;8.86;100.00;103753.59;5051409;28;20186;-60
2023/02/05 01:25:47;;;;;;;12.35;5.90;;;;;;;8.88;100.00;103757.13;5051457;28;20131;-66
2023/02/05 01:28:12;;;;;;;13.45;6.18;;;;;;;8.89;100.00;103766.81;5051727;28;20047;-68
2023/02/05 01:30:37;;;;;;;9.27;4.70;;;;;;;8.82;100.00;103765.78;5050898;28;20025;-69
2023/02/05 01:33:03;;;;;;;12.10;4.45;;;;;;;8.85;100.00;103760.59;5050427;28;20033;-67
2023/02/05 01:35:29;;;;;;;5.60;3.90;;;;;;;8.93;100.00;103771.28;5049908;28;20051;-69
2023/02/05 01:37:54;;;;;;;6.93;3.53;;;;;;;8.95;100.00;103781.81;5049817;28;20056;-69
2023/02/05 01:40:20;;;;;;;4.82;3.10;;;;;;;8.92;100.00;103782.66;5051097;28;20386;-69
2023/02/05 01:42:45;;;;;;;6.47;3.28;;;;;;;8.84;100.00;103785.13;5050674;28;20032;-66
2023/02/05 01:45:28;;;;;;;4.47;3.10;;;;;;;8.85;100.00;103776.38;5050071;28;20443;-69
2023/02/05 01:47:58;;;;;;;8.10;3.40;;;;;;;8.89;100.00;103771.19;5051190;28;20025;-68
2023/02/05 01:50:31;;;;;;;6.43;2.80;;;;;;;8.90;100.00;103770.31;5049989;28;20029;-66
2023/02/05 01:52:59;;;;;;;6.07;2.67;;;;;;;8.79;100.00;103757.84;5033921;28;20028;-63
2023/02/05 01:55:25;;;;;;;6.95;3.30;;;;;;;8.86;100.00;103745.72;5032123;28;20037;-69
2023/02/05 01:57:51;;;;;;;7.78;2.90;;;;;;;8.83;100.00;103751.81;5033214;28;20032;-67
2023/02/05 02:00:16;;;;;;;4.80;2.38;;;;;;;8.84;100.00;103748.31;5032652;28;20035;-69
2023/02/05 02:02:42;;;;;;;5.95;2.08;;;;;;;8.78;100.00;103727.16;5050139;28;20531;-69
2023/02/05 02:05:12;;;;;;;6.10;2.15;;;;;;;8.82;100.00;103739.50;5031110;28;20111;-68
2023/02/05 02:07:39;;;;;;;6.00;2.00;;;;;;;8.78;100.00;103752.53;5050462;28;20074;-70
2023/02/05 02:10:05;;;;;;;4.97;2.00;;;;;;;8.79;100.00;103754.34;5032443;28;20033;-67
2023/02/05 02:12:33;;;;;;;8.13;2.45;;;;;;;8.81;100.00;103737.72;5032800;28;20017;-71
2023/02/05 02:15:02;;;;;;;3.75;1.92;;;;;;;8.78;100.00;103729.78;5066910;28;20041;-63
2023/02/05 02:17:29;;;;;;;6.03;2.00;;;;;;;8.77;100.00;103728.00;5050244;28;20024;-65
2023/02/05 02:19:59;;;;;;;3.05;2.10;;;;;;;8.69;100.00;103724.31;5033073;28;20666;-70
2023/02/05 02:23:07;;;;;;;5.40;2.25;;;;;;;8.64;100.00;103718.09;5049963;28;20059;-70
2023/02/05 02:25:35;;;;;;;7.72;2.17;;;;;;;8.64;100.00;103695.31;5049943;28;20049;-60
2023/02/05 02:28:29;;;;;;;7.50;1.80;;;;;;;8.61;100.00;103697.00;5112851;23;20049;-68
2023/02/05 02:31:03;;;;;;;5.50;1.85;;;;;;;8.63;100.00;103687.38;5033156;28;20063;-69
2023/02/05 02:33:31;;;;;;;5.78;1.35;;;;;;;8.59;100.00;103689.97;5046614;28;20083;-70
2023/02/05 02:36:04;;;;;;;5.53;1.23;;;;;;;8.66;100.00;103679.56;5048176;28;20031;-69
2023/02/05 02:38:36;;;;;;;8.65;1.73;;;;;;;8.69;100.00;103679.63;5049447;28;20424;-68
2023/02/05 02:41:08;;;;;;;4.88;1.58;;;;;;;8.61;100.00;103681.25;5030410;28;20108;-68
2023/02/05 02:43:37;;;;;;;5.65;2.08;;;;;;;8.56;100.00;103689.91;5049170;28;20399;-69
2023/02/05 02:46:10;;;;;;;3.38;1.30;;;;;;;8.63;100.00;103685.66;5047959;28;20035;-66
2023/02/05 02:48:37;;;;;;;4.65;1.55;;;;;;;8.63;100.00;103680.41;5046567;28;20033;-69
2023/02/05 02:51:03;;;;;;;8.50;1.73;;;;;;;8.66;100.00;103684.81;5048849;28;20021;-69
2023/02/05 02:53:33;;;;;;;5.57;1.63;;;;;;;8.67;100.00;103679.59;5047632;28;20067;-70
2023/02/05 02:56:00;;;;;;;4.60;1.40;;;;;;;8.63;100.00;103680.41;5048763;28;20028;-69
2023/02/05 02:58:39;;;;;;;7.43;1.35;;;;;;;8.63;100.00;103687.38;5048595;28;20052;-69
2023/02/05 03:01:06;;;;;;;8.52;1.88;;;;;;;8.65;100.00;103685.69;5031046;28;20028;-70
2023/02/05 03:03:36;;;;;;;8.55;2.05;;;;;;;8.70;100.00;103697.19;5047858;28;20041;-66
2023/02/05 03:06:03;;;;;;;9.00;2.60;;;;;;;8.69;100.00;103687.53;5048343;28;20028;-62
2023/02/05 03:08:40;;;;;;;6.95;2.58;;;;;;;8.77;100.00;103688.56;5048121;28;20035;-68
2023/02/05 03:11:15;;;;;;;7.47;1.95;;;;;;;8.78;100.00;103699.97;5049501;28;20099;-67
2023/02/05 03:13:42;;;;;;;12.43;2.47;;;;;;;8.70;100.00;103702.47;5047479;28;20017;-69
2023/02/05 03:16:08;;;;;;;5.57;1.98;;;;;;;8.74;100.00;103712.19;5047359;28;20483;-68
2023/02/05 03:18:33;;;;;;;8.18;2.25;;;;;;;8.78;100.00;103716.63;5045284;28;20029;-66
2023/02/05 03:21:03;;;;;;;9.15;2.40;;;;;;;8.77;100.00;103708.72;5049168;28;20703;-70
2023/02/05 03:23:28;;;;;;;7.22;2.42;;;;;;;8.78;100.00;103710.47;5047127;28;20501;-70
2023/02/05 03:25:54;;;;;;;9.52;2.45;;;;;;;8.76;100.00;103710.44;5049425;28;20064;-70
2023/02/05 03:28:20;;;;;;;8.18;3.38;;;;;;;8.72;100.00;103724.38;5049404;28;20100;-65
2023/02/05 03:30:52;;;;;;;12.07;3.90;;;;;;;8.63;100.00;103722.47;5048315;28;20025;-70
2023/02/05 03:33:38;;;;;;;16.67;3.78;;;;;;;8.59;100.00;103716.28;5046587;28;20033;-67
2023/02/05 03:36:12;;;;;;;13.98;3.97;;;;;;;8.56;100.00;103716.19;5046738;28;20082;-69
2023/02/05 03:39:03;;;;;;;13.82;4.25;;;;;;;8.53;100.00;103716.09;5047152;28;20036;-71
2023/02/05 03:41:56;;;;;;;16.40;5.03;;;;;;;8.55;100.00;103717.03;5048315;28;20179;-60
2023/02/05 03:44:27;;;;;;;11.27;4.70;;;;;;;8.53;100.00;103710.84;5028915;28;20399;-61
2023/02/05 03:47:04;;;;;;;15.65;5.82;;;;;;;8.43;100.00;103711.50;5028227;28;20431;-67
2023/02/05 03:49:58;;;;;;;19.08;6.38;;;;;;;8.47;100.00;103721.22;5027002;28;20467;-68
2023/02/05 03:52:31;;;;;;;14.63;5.53;;;;;;;8.44;100.00;103715.91;5027506;28;20037;-66
2023/02/05 03:55:19;;;;;;;14.02;5.22;;;;;;;8.40;100.00;103707.03;5026681;28;20043;-69
2023/02/05 03:58:01;;;;;;;16.58;6.50;;;;;;;8.36;100.00;103723.59;5026953;28;20025;-59
2023/02/05 04:00:27;;;;;;;19.65;6.60;;;;;;;8.40;100.00;103709.69;5026125;28;20040;-68
2023/02/05 04:02:52;;;;;;;10.82;5.35;;;;;;;8.40;100.00;103708.81;5028438;28;20439;-67
2023/02/05 04:05:21;;;;;;;13.35;6.35;;;;;;;8.30;100.00;103720.84;5028164;28;20075;-69
2023/02/05 04:07:47;;;;;;;11.73;5.88;;;;;;;8.39;100.00;103714.91;5047398;28;20029;-71
2023/02/05 04:10:12;;;;;;;11.90;6.57;;;;;;;8.31;100.00;103715.63;5048060;28;20094;-69
2023/02/05 04:12:38;;;;;;;11.52;6.60;;;;;;;8.35;100.00;103716.59;5047112;28;20108;-67
2023/02/05 04:15:04;;;;;;;10.20;5.95;;;;;;;8.35;100.00;103711.34;5047466;28;20056;-70
2023/02/05 04:17:29;;;;;;;14.02;6.75;;;;;;;8.34;100.00;103715.69;5047636;28;20029;-65
2023/02/05 04:19:54;;;;;;;8.77;5.13;;;;;;;8.27;100.00;103713.78;5046178;28;20067;-66
2023/02/05 04:22:20;;;;;;;9.63;4.95;;;;;;;8.22;100.00;103718.06;5039537;28;20037;-69
2023/02/05 04:24:45;;;;;;;6.85;3.72;;;;;;;8.18;100.00;103729.34;5027275;28;20585;-67
2023/02/05 04:27:10;;;;;;;6.13;3.75;;;;;;;7.96;100.00;103727.13;5026773;28;20045;-68
2023/02/05 04:29:36;;;;;;;7.20;3.75;;;;;;;8.10;100.00;103739.69;5027806;28;20033;-65
2023/02/05 04:32:01;;;;;;;5.30;3.22;;;;;;;8.00;100.00;103732.44;5041094;28;20040;-68
2023/02/05 04:34:26;;;;;;;9.07;3.22;;;;;;;7.92;100.00;103751.50;5046205;28;20473;-66
2023/02/05 04:36:52;;;;;;;6.13;2.72;;;;;;;7.79;100.00;103737.19;5047254;28;20106;-62
2023/02/05 04:39:17;;;;;;;8.98;2.65;;;;;;;7.69;100.00;103750.94;5047314;28;20094;-69
2023/02/05 04:41:42;;;;;;;5.55;1.52;;;;;;;7.72;100.00;103745.78;5045930;28;20498;-61
2023/02/05 04:44:08;;;;;;;7.97;1.42;;;;;;;7.63;100.00;103758.66;5046117;28;20068;-67
2023/02/05 04:46:33;;;;;;;5.22;1.35;;;;;;;7.69;100.00;103753.56;5047107;28;20071;-67
2023/02/05 04:48:59;;;;;;;13.02;1.80;;;;;;;7.67;100.00;103757.88;5044712;28;20025;-68
2023/02/05 04:51:25;;;;;;;12.20;1.60;;;;;;;7.61;100.00;103765.63;5046967;28;20071;-66
2023/02/05 04:53:50;;;;;;;8.88;1.50;;;;;;;7.50;100.00;103775.81;5048417;28;20513;-70
2023/02/05 04:56:16;;;;;;;9.32;1.95;;;;;;;7.47;100.00;103781.88;5046890;28;20713;-69
2023/02/05 04:58:43;;;;;;;13.13;1.88;;;;;;;7.32;100.00;103785.84;5046212;28;20048;-67
2023/02/05 05:01:12;;;;;;;13.18;1.70;;;;;;;7.36;100.00;103793.81;5047160;28;20494;-67
2023/02/05 05:03:38;;;;;;;15.48;2.35;;;;;;;7.35;100.00;103794.66;5030584;28;20033;-68
2023/02/05 05:06:04;;;;;;;14.35;1.60;;;;;;;7.36;100.00;103814.78;5033142;28;20112;-63
2023/02/05 05:08:29;;;;;;;11.23;1.83;;;;;;;7.30;100.00;103799.78;5046656;28;20154;-70
2023/02/05 05:10:54;;;;;;;9.57;2.45;;;;;;;7.39;100.00;103796.53;5045856;28;20025;-69
2023/02/05 05:13:20;;;;;;;14.20;2.67;;;;;;;7.38;100.00;103797.38;5039966;28;20033;-66
2023/02/05 05:15:52;;;;;;;13.30;2.00;;;;;;;7.26;100.00;103805.78;5044725;28;20033;-67
2023/02/05 05:18:17;;;;;;;17.33;2.40;;;;;;;7.17;100.00;103811.69;5032937;28;20029;-68
2023/02/05 05:20:43;;;;;;;15.80;2.67;;;;;;;7.21;100.00;103821.41;5034772;28;20490;-60
2023/02/05 05:23:08;;;;;;;15.80;3.25;;;;;;;7.05;100.00;103836.69;5045996;28;20021;-68
2023/02/05 05:25:33;;;;;;;21.05;2.70;;;;;;;7.10;100.00;103828.09;5046040;28;20017;-65
2023/02/05 05:27:59;;;;;;;17.85;2.22;;;;;;;7.05;100.00;103831.44;5045839;28;20041;-68
2023/02/05 05:30:24;;;;;;;23.83;3.67;;;;;;;7.10;100.00;103830.69;5044258;28;20071;-69
2023/02/05 05:32:49;;;;;;;11.65;2.20;;;;;;;6.90;100.00;103837.13;5046000;28;20105;-65
2023/02/05 05:35:15;;;;;;;15.13;2.10;;;;;;;6.73;100.00;103838.34;5044384;28;20434;-68
2023/02/05 05:37:40;;;;;;;12.55;2.15;;;;;;;6.75;100.00;103850.66;5043881;28;20087;-69
2023/02/05 05:45:33;;;;;;;14.23;2.47;;;;;;;6.57;100.00;103845.75;5044432;28;20052;-67
2023/02/05 05:47:59;;;;;;;16.50;2.55;;;;;;;6.68;100.00;103840.81;5045553;28;20459;-67
2023/02/05 05:50:24;;;;;;;12.85;1.70;;;;;;;6.72;100.00;103854.91;5045546;28;20482;-68
2023/02/05 05:52:49;;;;;;;12.88;2.03;;;;;;;6.65;100.00;103853.84;5046899;28;20028;-66
2023/02/05 05:55:15;;;;;;;8.77;1.98;;;;;;;6.76;100.00;103855.06;5046863;28;20021;-68
2023/02/05 05:57:40;;;;;;;8.80;1.85;;;;;;;6.88;100.00;103880.75;5048947;28;20502;-63
2023/02/05 06:00:06;;;;;;;14.00;1.60;;;;;;;6.79;100.00;103864.75;5049956;28;20025;-65
2023/02/05 06:02:31;;;;;;;10.93;2.20;;;;;;;6.92;100.00;103855.50;5049604;28;20053;-68
2023/02/05 06:04:57;;;;;;;18.20;2.55;;;;;;;6.82;100.00;103862.22;5048402;28;20119;-60
2023/02/05 06:07:22;;;;;;;14.00;2.13;;;;;;;6.92;100.00;103863.38;5049480;28;20029;-62
2023/02/05 06:09:47;;;;;;;19.65;2.42;;;;;;;6.91;100.00;103858.97;5048946;28;20086;-72
2023/02/05 06:12:13;;;;;;;10.43;2.17;;;;;;;6.95;100.00;103861.75;5044636;28;20187;-67
2023/02/05 06:14:38;;;;;;;21.13;4.25;;;;;;;6.98;100.00;103865.31;5047826;28;20021;-66
2023/02/05 06:17:03;;;;;;;15.68;2.00;;;;;;;6.94;100.00;103880.94;5049505;28;20025;-66
2023/02/05 06:19:29;;;;;;;18.20;2.35;;;;;;;7.12;100.00;103866.59;5048435;28;20123;-67
2023/02/05 06:21:54;;;;;;;9.65;2.50;;;;;;;6.90;100.00;103893.91;5048805;28;20021;-67
2023/02/05 06:24:19;;;;;;;17.52;2.40;;;;;;;7.07;100.00;103887.44;5047248;28;20486;-67
2023/02/05 06:26:45;;;;;;;23.73;4.03;;;;;;;7.19;100.00;103886.03;5049591;28;20628;-67
2023/02/05 06:29:10;;;;;;;20.33;2.67;;;;;;;7.01;100.00;103892.50;5042164;28;20041;-67
2023/02/05 06:31:35;;;;;;;16.52;2.67;;;;;;;7.13;100.00;103898.97;5049110;28;20040;-63
2023/02/05 06:34:01;;;;;;;14.60;2.50;;;;;;;7.13;100.00;103899.84;5049333;28;20032;-69
2023/02/05 06:36:26;;;;;;;21.65;2.42;;;;;;;7.14;100.00;103909.50;5049566;28;20025;-64
2023/02/05 06:38:51;;;;;;;22.08;3.35;;;;;;;7.28;100.00;103917.78;5049933;28;20020;-61
2023/02/05 06:41:17;;;;;;;23.42;2.83;;;;;;;7.19;100.00;103922.75;5050712;28;20021;-66
2023/02/05 06:43:42;;;;;;;17.38;2.40;;;;;;;7.18;100.00;103926.22;5046045;28;20033;-68
2023/02/05 06:46:08;;;;;;;19.27;3.13;;;;;;;7.12;100.00;103947.91;5049600;28;20020;-64
2023/02/05 06:48:33;;;;;;;30.75;2.80;;;;;;;7.04;100.00;103934.53;5042167;28;20025;-66
2023/02/05 06:50:58;;;;;;;21.23;2.47;;;;;;;7.08;100.00;103936.41;5049655;28;20386;-67
2023/02/05 06:53:24;;;;;;;18.77;2.67;;;;;;;7.19;100.00;103948.97;5046057;28;20035;-67
2023/02/05 06:55:49;;;;;;;21.83;2.95;;;;;;;7.15;100.00;103949.72;5050098;28;20494;-64
2023/02/05 06:58:14;;;;;;;19.08;2.65;;;;;;;7.13;100.00;103951.44;5048732;28;20053;-67
2023/02/05 07:00:40;;;;;;;23.63;3.25;;;;;;;6.98;100.00;103947.47;5044382;28;20021;-70
2023/02/05 07:03:05;;;;;;;24.15;2.97;;;;;;;7.10;100.00;103956.56;5044031;28;20025;-67
2023/02/05 07:05:32;;;;;;;17.10;3.05;;;;;;;7.16;100.00;103956.75;5048937;28;20052;-62
2023/02/05 07:07:58;;;;;;;17.85;3.22;;;;;;;7.11;100.00;103960.97;5049375;28;20028;-68
2023/02/05 07:10:24;;;;;;;19.33;3.35;;;;;;;7.17;100.00;103969.03;5049791;28;20459;-67
2023/02/05 07:12:49;;;;;;;23.45;3.00;;;;;;;7.16;100.00;103976.00;5049598;28;20045;-65
2023/02/05 07:15:14;;;;;;;21.35;2.92;;;;;;;7.16;100.00;103985.59;5035603;28;20087;-69
2023/02/05 07:17:40;;;;;;;23.42;3.00;;;;;;;7.11;100.00;103989.81;5062919;28;20112;-64
2023/02/05 07:20:05;;;;;;;18.95;2.88;;;;;;;7.23;100.00;103997.16;5048143;28;20086;-66
2023/02/05 07:22:31;;;;;;;24.92;3.85;;;;;;;7.19;100.00;104002.31;5048482;28;20043;-66
2023/02/05 07:24:56;;;;;;;28.30;3.33;;;;;;;7.18;100.00;104007.50;5048643;28;20025;-63
2023/02/05 07:27:22;;;;;;;19.75;3.08;;;;;;;7.27;100.00;104015.69;5048044;28;20053;-64
2023/02/05 07:29:47;;;;;;;24.92;3.22;;;;;;;7.14;100.00;104009.16;5049032;28;20021;-69
2023/02/05 07:32:12;;;;;;;22.85;3.63;;;;;;;7.14;100.00;104019.66;5043291;28;20343;-70
2023/02/05 07:34:38;;;;;;;22.42;3.28;;;;;;;7.07;100.00;104022.91;5047434;28;20078;-65
2023/02/05 07:37:03;;;;;;;25.92;3.33;;;;;;;7.10;100.00;104048.34;5049166;28;20108;-69
2023/02/05 07:39:29;;;;;;;24.23;3.25;;;;;;;7.22;100.00;104043.47;5045602;28;20009;-68
2023/02/05 07:41:54;;;;;;;20.13;3.08;;;;;;;7.16;100.00;104048.53;5036898;28;20029;-65
2023/02/05 07:44:20;;;;;;;16.75;2.70;;;;;;;7.29;100.00;104045.47;5048544;28;20017;-66
2023/02/05 07:46:45;;;;;;;20.85;3.45;;;;;;;7.17;100.00;104051.19;5048454;28;20100;-68
2023/02/05 07:49:11;;;;;;;14.60;3.20;;;;;;;7.27;100.00;104051.50;5047881;28;20040;-61
2023/02/05 07:51:36;;;;;;;19.08;4.15;;;;;;;7.17;100.00;104051.19;5047930;28;20537;-66
2023/02/05 07:54:09;;;;;;;20.77;3.33;;;;;;;7.29;100.00;104055.09;5044224;28;20021;-67
2023/02/05 07:56:34;;;;;;;26.92;3.53;;;;;;;7.22;100.00;104053.97;5040848;28;20036;-66
2023/02/05 07:59:00;;;;;;;14.00;3.15;;;;;;;7.30;100.00;104051.59;5046250;28;20029;-67
2023/02/05 08:01:25;;;;;;;24.20;3.85;;;;;;;7.35;100.00;104054.38;5042646;28;20025;-70
2023/02/05 08:03:51;;;;;;;29.45;4.32;;;;;;;7.44;100.00;104046.81;5045758;28;20375;-65
2023/02/05 08:06:16;;;;;;;29.40;3.75;;;;;;;7.55;100.00;104054.97;5042250;28;20403;-67
2023/02/05 08:08:42;;;;;;;28.58;4.40;;;;;;;7.66;100.00;104060.56;5046427;28;20310;-63
2023/02/05 08:11:12;;;;;;;20.30;3.78;;;;;;;7.74;100.00;104059.09;5046755;28;20588;-69
2023/02/05 08:13:38;;;;;;;25.20;3.78;;;;;;;7.67;100.00;104067.59;5046018;28;20060;-64
2023/02/05 08:16:05;;;;;;;36.10;3.97;;;;;;;7.71;100.00;104053.75;5046880;28;20403;-67
2023/02/05 08:18:30;;;;;;;26.73;3.80;;;;;;;7.66;100.00;104061.47;5037986;28;20021;-61
2023/02/05 08:20:55;;;;;;;24.15;3.65;;;;;;;7.75;100.00;104063.47;5037798;28;20021;-66
2023/02/05 08:23:21;;;;;;;21.27;3.60;;;;;;;7.71;100.00;104069.50;5044105;28;20419;-69
2023/02/05 08:25:46;;;;;;;35.70;4.50;;;;;;;7.70;100.00;104073.84;5046998;28;20048;-66
2023/02/05 08:28:12;;;;;;;26.70;4.50;;;;;;;7.89;100.00;104069.13;5046236;28;20130;-69
2023/02/05 08:30:38;;;;;;;33.17;5.38;;;;;;;7.97;100.00;104069.34;5046887;28;20479;-69
2023/02/05 08:33:03;;;;;;;38.55;4.78;;;;;;;7.99;100.00;104072.03;5036450;28;20025;-66
2023/02/05 08:35:29;;;;;;;42.38;5.10;;;;;;;8.03;100.00;104079.16;5046503;28;20052;-67
2023/02/05 08:37:54;;;;;;;37.38;5.40;;;;;;;7.93;100.00;104084.16;5046856;28;20055;-67
2023/02/05 08:40:20;;;;;;;33.47;4.60;;;;;;;7.84;100.00;104097.91;5046956;28;20028;-66
2023/02/05 08:42:48;;;;;;;45.28;7.05;;;;;;;7.91;100.00;104087.56;5045920;28;20108;-68
2023/02/05 08:45:13;;;;;;;33.17;4.75;;;;;;;7.87;100.00;104088.31;5046723;28;20052;-68
2023/02/05 08:47:38;;;;;;;39.60;5.07;;;;;;;7.85;100.00;104101.41;5045681;28;20021;-68
2023/02/05 08:50:04;;;;;;;38.10;4.65;;;;;;;7.90;100.00;104115.56;5046794;28;20535;-64
2023/02/05 08:52:30;;;;;;;30.10;4.55;;;;;;;7.94;100.00;104113.91;5042094;28;20503;-67
2023/02/05 08:54:56;;;;;;;29.70;4.50;;;;;;;8.02;100.00;104122.91;5043671;28;20053;-69
2023/02/05 08:57:21;;;;;;;31.35;5.10;;;;;;;8.12;100.00;104117.94;5046625;28;20032;-63
2023/02/05 08:59:47;;;;;;;32.28;4.88;;;;;;;8.12;100.00;104118.81;5046817;28;20491;-64
2023/02/05 09:02:15;;;;;;;34.72;5.78;;;;;;;8.10;100.00;104133.66;5041730;28;20519;-67
2023/02/05 09:04:41;;;;;;;36.42;4.95;;;;;;;8.08;100.00;104131.00;5046173;28;20064;-67
2023/02/05 09:07:06;;;;;;;31.60;5.07;;;;;;;8.00;100.00;104121.97;5046464;28;20479;-68
2023/02/05 09:09:33;;;;;;;33.80;4.82;;;;;;;8.01;100.00;104134.25;5046336;28;20032;-67
2023/02/05 09:11:59;;;;;;;36.38;4.68;;;;;;;8.21;100.00;104134.84;5043045;28;20376;-67
2023/02/05 09:14:24;;;;;;;32.28;4.43;;;;;;;8.44;100.00;104136.38;5046866;28;20032;-69
2023/02/05 09:16:49;;;;;;;32.92;4.70;;;;;;;8.39;100.00;104127.44;5045341;28;20100;-68
2023/02/05 09:19:15;;;;;;;30.92;5.00;;;;;;;8.26;100.00;104136.72;5046023;28;20059;-68
2023/02/05 09:21:40;;;;;;;37.55;6.05;;;;;;;8.05;100.00;104133.53;5045226;28;20040;-67
2023/02/05 09:24:06;;;;;;;36.45;4.90;;;;;;;8.04;100.00;104125.59;5047931;28;20025;-64
2023/02/05 09:26:31;;;;;;;38.38;4.38;;;;;;;8.06;100.00;104119.53;5045772;28;20033;-65
2023/02/05 09:28:57;;;;;;;38.47;5.15;;;;;;;7.99;100.00;104106.16;5043979;28;20017;-70
2023/02/05 09:31:22;;;;;;;43.95;5.72;;;;;;;8.08;100.00;104122.22;5051017;28;20037;-61
2023/02/05 09:33:47;;;;;;;31.38;4.97;;;;;;;8.21;100.00;104098.06;5058269;28;20021;-66
2023/02/05 09:36:15;;;;;;;43.90;5.18;;;;;;;8.09;100.00;104109.13;5058624;28;20033;-65
2023/02/05 09:38:41;;;;;;;39.20;5.97;;;;;;;8.27;100.00;104107.88;5055420;28;20582;-67
2023/02/05 09:41:12;;;;;;;38.50;4.95;;;;;;;8.28;100.00;104120.16;5045298;28;20053;-67
2023/02/05 09:43:49;;;;;;;38.97;4.78;;;;;;;8.25;100.00;104116.56;5056018;28;20023;-69
2023/02/05 09:46:20;;;;;;;31.42;4.10;;;;;;;8.33;100.00;104099.25;5048422;28;20029;-70
2023/02/05 09:48:56;;;;;;;35.28;5.45;;;;;;;8.49;100.00;104091.81;5048763;28;20029;-67
2023/02/05 09:51:35;;;;;;;42.17;5.57;;;;;;;8.41;100.00;104088.97;5046822;28;20029;-61
2023/02/05 09:54:06;;;;;;;34.20;4.70;;;;;;;8.37;100.00;104102.88;5045661;28;20037;-66
2023/02/05 09:56:31;;;;;;;41.88;7.85;;;;;;;8.55;100.00;104116.56;5044985;28;20064;-65
2023/02/05 09:58:57;;;;;;;29.92;5.30;;;;;;;8.87;100.00;104141.03;5041819;28;20482;-69
2023/02/05 10:01:31;;;;;;;37.88;5.05;;;;;;;8.79;100.00;104128.56;5051710;28;20364;-62
2023/02/05 10:04:02;;;;;;;40.92;5.25;;;;;;;8.82;100.00;104140.94;5049616;28;20977;-68
2023/02/05 10:06:45;;;;;;;34.53;5.65;;;;;;;8.87;100.00;104146.28;5042598;28;20147;-68
2023/02/05 10:09:14;;;;;;;34.58;5.47;;;;;;;8.76;100.00;104139.00;5049120;28;20529;-71
2023/02/05 10:11:50;;;;;;;36.60;5.10;;;;;;;8.80;100.00;104142.63;5050563;28;20045;-68
2023/02/05 10:14:28;;;;;;;33.90;4.78;;;;;;;8.70;100.00;104152.03;5050332;28;20024;-66
2023/02/05 10:17:05;;;;;;;47.33;7.47;;;;;;;8.87;100.00;104143.66;5041392;28;20042;-67
2023/02/05 10:19:49;;;;;;;31.08;4.25;;;;;;;9.04;100.00;104134.50;5047017;28;20120;-67
2023/02/05 10:22:19;;;;;;;35.30;5.80;;;;;;;8.84;100.00;104145.38;5050793;28;20040;-68
2023/02/05 10:24:53;;;;;;;45.13;5.45;;;;;;;8.90;100.00;104133.22;5051150;28;20025;-68
2023/02/05 10:27:23;;;;;;;37.88;5.15;;;;;;;8.72;100.00;104126.63;5053524;28;20045;-66
2023/02/05 10:30:17;;;;;;;30.13;4.45;;;;;;;8.58;100.00;104129.78;5056787;28;20013;-68
2023/02/05 10:33:01;;;;;;;27.92;4.70;;;;;;;8.72;100.00;104131.91;5052776;28;20595;-66
2023/02/05 10:36:00;;;;;;;41.72;5.32;;;;;;;8.76;100.00;104133.75;5064771;28;20033;-66
2023/02/05 10:38:30;;;;;;;34.70;5.90;;;;;;;8.59;100.00;104125.44;5058753;28;20110;-67
2023/02/05 10:41:00;;;;;;;35.67;5.78;;;;;;;8.57;100.00;104135.00;5051744;28;20028;-66
2023/02/05 10:44:10;;;;;;;39.90;4.88;;;;;;;8.36;100.00;104130.88;5046136;28;20038;-68
2023/02/05 10:46:36;;;;;;;36.63;5.00;;;;;;;8.28;100.00;104143.78;5043177;28;20041;-64
2023/02/05 10:49:11;;;;;;;41.00;7.03;;;;;;;8.46;100.00;104146.06;5047513;28;20044;-70
2023/02/05 10:51:41;;;;;;;34.85;5.00;;;;;;;8.41;100.00;104146.78;5043011;28;20379;-71
2023/02/05 10:54:28;;;;;;;32.40;4.80;;;;;;;8.59;100.00;104147.34;5049123;28;20025;-71
2023/02/05 10:56:56;;;;;;;28.65;5.32;;;;;;;8.95;100.00;104158.81;5041958;28;20107;-65
2023/02/05 10:59:26;;;;;;;44.40;6.22;;;;;;;8.91;100.00;104156.94;5043692;28;20033;-64
2023/02/05 11:01:51;;;;;;;39.08;4.75;;;;;;;9.16;100.00;104159.34;5044518;28;20112;-62
2023/02/05 11:04:37;;;;;;;34.97;5.25;;;;;;;9.30;100.00;104167.59;5043353;28;20520;-69
2023/02/05 11:07:05;;;;;;;37.33;5.93;;;;;;;9.33;100.00;104158.00;5040321;28;20017;-60
2023/02/05 11:09:33;;;;;;;34.63;6.20;;;;;;;9.40;100.00;104152.91;5046419;28;20464;-65
2023/02/05 11:12:08;;;;;;;26.05;4.45;;;;;;;9.35;100.00;104148.41;5041810;28;20032;-66
2023/02/05 11:14:38;;;;;;;41.33;5.95;;;;;;;8.89;100.00;104150.78;5040531;28;20053;-71
2023/02/05 11:17:16;;;;;;;25.52;4.07;;;;;;;9.10;100.00;104162.69;5046009;28;20029;-70
2023/02/05 11:19:52;;;;;;;31.73;5.72;;;;;;;9.24;100.00;104149.88;5044244;28;20100;-64
2023/02/05 11:22:28;;;;;;;33.03;5.28;;;;;;;9.53;100.00;104136.56;5049195;28;20032;-62
2023/02/05 11:25:06;;;;;;;41.05;5.53;;;;;;;9.50;100.00;104143.47;5050835;28;20052;-67
2023/02/05 11:27:33;;;;;;;27.60;4.25;;;;;;;9.28;100.00;104130.72;5039803;28;20071;-64
2023/02/05 11:30:26;;;;;;;45.30;4.95;;;;;;;9.31;100.00;104138.69;5037168;28;20105;-68